Aviation Digital Data Service (ADDS)

Output produced by METARs form (1034 UTC 17 June 2019)
found at http://www.aviationweather.gov/metar/data/
 
Forecast for: RKSO (OSAN (US/KOR-AFB, KR)
Text: TAF RKSO 170300Z 1703/1809 VRB06KT 8000 HZ SCT025 QNH2980INS
Forecast period: 0300 UTC 17 June 2019 to 0900 UTC 18 June 2019
Forecast type: FROM: standard forecast or significant change
Winds: variable direction winds at 7 MPH (6 knots; 3.1 m/s)
Visibility: 5 miles (8 km)
Ceiling: at least 12,000 feet AGL
Clouds: scattered clouds at 2500 feet AGL
Weather: HZ  (haze)
Text: TEMPO 1800/1804 6000 -SHRA BKN020 TX29/1705Z TN15/1722Z
Forecast period: 0000 to 0400 UTC 18 June 2019
Forecast type: TEMPORARY: The following changes expected for less than half the time period
Visibility: 4 miles (6 km)
Ceiling: 2000 feet AGL
Clouds: broken clouds at 2000 feet AGL
Weather: -SHRA  (light rain showers)